Ulan-Ude Airport (Mukhino)
UIUU : now visible

Airfield :











YOU CAN JOIN US ON...

 
LOGIN :

Register | Disclaimer

   EN    FR    IT 

 









Legend :    VFR   Marginal VFR   IFR   Intensive IFR   Very Intensive IFR
Visi :
Ceiling :
>= 8 km
>= 3000ft
5 to 8 km
1000 to 3000 ft
1500m to 5 km
500 to 1000 ft
800 to 1500m
200 to 500 ft
< 800m
< 200 ft
Symbols :   Thunderstorms  Fog  Heavy snow  Heavy precipitations  Wind > 20 kt






- Airport Elevation : 1690 ft
- IATA code : UUD


UIUU - Ulan-Ude (Mukhino)

CURRENT METAR :
  • 241730Z VRB01MPS 9999 BKN043CB M10/M12 Q1034 R26/820555 NOSIG RMK QFE730/0974

EXPIRED METARs :
  • 241700Z VRB01MPS 9999 BKN043CB M07/M12 Q1033 R26/820555 NOSIG RMK QFE730/0974
  • 241630Z 32003MPS 290V350 9999 BKN043CB M07/M11 Q1033 R26/820555 NOSIG RMK QFE730/0974
  • 241600Z 31003MPS 9999 BKN043CB M06/M11 Q1033 R26/820555 NOSIG RMK QFE730/0974
  • 241530Z 32002MPS 290V360 9999 BKN046CB M06/M11 Q1033 R26/820555 NOSIG RMK QFE730/0973
  • 241500Z 18002MPS 160V220 9999 BKN046CB M06/M10 Q1033 R26/820555 NOSIG RMK QFE730/0973

TAF TAF UIUU
Valid from the 24 at 18:00 until the 25 at 18:00 UTC


241700Z 2418/2518 34003G08MPS 9999 BKN040CB
UIII FIR / Asia



MET'MAP, your aeronautical weather chart ! - Copyright ORBIFLY December 2007 - Disclaimer

ORBIFLY MET'MAP TEAM :

Programming & Development : Alexandra Zaïnal
Concept & original design : Baudouin d'Aumeries
Assistance for programming : Marc-Olivier Méhu
Technical & hardware support : Manuel Goepfert

Contact : metmap@orbifly.com




SOURCES & CREDITS :

   NOAA       Earth
Advisory